Time;durP1;ratioP1;P1;durP2;ratioP2;P2;SDS_P1;SDS_P2;PMS_P1;PMS_P2;Temp;Humidity;BMP_temperature;BMP_pressure;BME280_temperature;BME280_humidity;BME280_pressure;Samples;Min_cycle;Max_cycle;Signal;HPM_P1;HPM_P2
2021/10/17 00:00:57;;;;;;;0.28;0.28;;;;;;;6.61;100.00;101299.00;5011942;28;20050;-84
2021/10/17 00:03:30;;;;;;;0.20;0.20;;;;;;;6.66;100.00;101292.88;5009290;28;20395;-84
2021/10/17 00:06:05;;;;;;;0.10;0.10;;;;;;;6.64;100.00;101297.69;5011211;28;20049;-82
2021/10/17 00:08:38;;;;;;;0.20;0.20;;;;;;;6.58;100.00;101285.13;5023575;28;20057;-84
2021/10/17 00:11:11;;;;;;;0.20;0.20;;;;;;;6.61;100.00;101293.59;5023319;28;20052;-84
2021/10/17 00:13:44;;;;;;;0.25;0.25;;;;;;;6.61;100.00;101287.34;5026131;28;20052;-84
2021/10/17 00:16:13;;;;;;;0.20;0.20;;;;;;;6.76;100.00;101287.66;5008570;28;20042;-83
2021/10/17 00:18:46;;;;;;;0.20;0.20;;;;;;;6.68;100.00;101284.53;5010308;28;20418;-84
2021/10/17 00:21:16;;;;;;;0.13;0.13;;;;;;;6.65;100.00;101285.81;5023378;28;20486;-84
2021/10/17 00:23:49;;;;;;;0.10;0.10;;;;;;;6.68;100.00;101279.13;5010835;28;20061;-83
2021/10/17 00:26:17;;;;;;;0.20;0.20;;;;;;;6.78;100.00;101276.59;5014314;28;20064;-82
2021/10/17 00:28:50;;;;;;;0.20;0.20;;;;;;;6.69;100.00;101273.47;5011274;28;20494;-83
2021/10/17 00:31:23;;;;;;;0.20;0.20;;;;;;;6.64;100.00;101276.06;5025918;28;20046;-84
2021/10/17 00:33:51;;;;;;;0.20;0.20;;;;;;;6.58;100.00;101275.13;5010748;28;20057;-84
2021/10/17 00:36:28;;;;;;;0.20;0.20;;;;;;;6.57;100.00;101275.38;5005194;28;20049;-83
2021/10/17 00:39:01;;;;;;;0.20;0.20;;;;;;;6.58;100.00;101269.72;5008303;28;20046;-83
2021/10/17 00:41:36;;;;;;;0.20;0.20;;;;;;;6.62;100.00;101272.78;5006929;28;20065;-84
2021/10/17 00:44:09;;;;;;;0.20;0.20;;;;;;;6.59;100.00;101271.38;5009493;28;20375;-83
2021/10/17 00:46:38;;;;;;;0.20;0.20;;;;;;;6.58;100.00;101266.22;5009961;28;20052;-84
2021/10/17 00:49:11;;;;;;;0.20;0.20;;;;;;;6.56;100.00;101262.91;5008144;28;20046;-84
2021/10/17 00:51:46;;;;;;;0.30;0.30;;;;;;;6.57;100.00;101270.81;5007841;28;20053;-83
2021/10/17 00:54:16;;;;;;;0.20;0.20;;;;;;;6.59;100.00;101270.56;5009424;28;20133;-83
2021/10/17 00:56:49;;;;;;;0.20;0.20;;;;;;;6.56;100.00;101271.84;5009038;28;21416;-83
2021/10/17 00:59:22;;;;;;;0.20;0.20;;;;;;;6.57;100.00;101268.09;5015068;28;20437;-84
2021/10/17 01:01:51;;;;;;;0.20;0.20;;;;;;;6.64;100.00;101259.81;5022980;28;20055;-83
2021/10/17 01:04:24;;;;;;;0.20;0.20;;;;;;;6.73;100.00;101260.28;5006407;28;20050;-84
2021/10/17 01:06:59;;;;;;;0.20;0.20;;;;;;;6.62;100.00;101253.84;5012170;28;20057;-84
2021/10/17 01:09:32;;;;;;;0.20;0.20;;;;;;;6.54;100.00;101257.75;5024995;28;20057;-83
2021/10/17 01:12:09;;;;;;;0.25;0.25;;;;;;;6.57;100.00;101254.59;5008283;28;20052;-84
2021/10/17 01:14:42;;;;;;;0.20;0.20;;;;;;;6.54;100.00;101256.94;5009105;28;20045;-83
2021/10/17 01:17:15;;;;;;;0.20;0.20;;;;;;;6.48;100.00;101250.59;5007731;28;20420;-83
2021/10/17 01:19:50;;;;;;;0.28;0.28;;;;;;;6.50;100.00;101253.06;5020202;28;20061;-84
2021/10/17 01:22:25;;;;;;;0.15;0.15;;;;;;;6.54;100.00;101244.22;5021109;28;20056;-83
2021/10/17 01:24:59;;;;;;;0.20;0.20;;;;;;;6.50;100.00;101237.66;5007289;28;20046;-84
2021/10/17 01:27:27;;;;;;;0.20;0.20;;;;;;;6.53;100.00;101247.16;5010097;28;20053;-82
2021/10/17 01:29:57;;;;;;;0.20;0.20;;;;;;;6.51;100.00;101230.38;5007084;28;20385;-84
2021/10/17 01:32:25;;;;;;;0.30;0.30;;;;;;;6.54;100.00;101230.69;5007214;28;20056;-85
2021/10/17 01:34:59;;;;;;;0.20;0.20;;;;;;;6.56;100.00;101227.75;5008089;28;20049;-85
2021/10/17 01:37:28;;;;;;;0.30;0.30;;;;;;;6.56;100.00;101227.75;5009879;28;20753;-84
2021/10/17 01:40:01;;;;;;;0.25;0.25;;;;;;;6.55;100.00;101220.72;5007016;28;20054;-84
2021/10/17 01:42:35;;;;;;;0.20;0.20;;;;;;;6.55;100.00;101215.31;5011103;28;20046;-84
2021/10/17 01:45:09;;;;;;;0.20;0.20;;;;;;;6.54;100.00;101221.78;5020546;28;20053;-84
2021/10/17 01:47:38;;;;;;;0.20;0.20;;;;;;;6.53;100.00;101207.44;5009951;28;20054;-82
2021/10/17 01:50:13;;;;;;;0.20;0.20;;;;;;;6.56;100.00;101219.63;5021983;28;20042;-84
2021/10/17 01:52:48;;;;;;;0.20;0.20;;;;;;;6.57;100.00;101216.72;5005735;28;20046;-84
2021/10/17 01:55:16;;;;;;;0.10;0.10;;;;;;;6.56;100.00;101214.22;5007017;28;20054;-83
2021/10/17 01:57:49;;;;;;;0.20;0.20;;;;;;;6.55;100.00;101210.72;5008360;28;20061;-84
2021/10/17 02:00:23;;;;;;;0.20;0.20;;;;;;;6.56;100.00;101201.56;5008423;28;20847;-84
2021/10/17 02:02:56;;;;;;;0.20;0.20;;;;;;;6.56;100.00;101208.81;5013328;28;20053;-83
2021/10/17 02:05:33;;;;;;;0.20;0.20;;;;;;;6.58;100.00;101201.31;5011878;28;20433;-83
2021/10/17 02:08:01;;;;;;;0.20;0.17;;;;;;;6.58;100.00;101204.00;5013927;28;20069;-84
2021/10/17 02:10:30;;;;;;;0.20;0.20;;;;;;;6.61;100.00;101201.63;5025766;28;20486;-81
2021/10/17 02:13:09;;;;;;;0.20;0.20;;;;;;;6.59;100.00;101200.25;5012657;28;20061;-84
2021/10/17 02:15:42;;;;;;;0.15;0.15;;;;;;;6.58;100.00;101198.59;5011892;28;20057;-83
2021/10/17 02:18:16;;;;;;;0.20;0.20;;;;;;;6.56;100.00;101198.84;5012222;28;20089;-85
2021/10/17 02:20:52;;;;;;;0.20;0.20;;;;;;;6.56;100.00;101195.31;5027049;28;20051;-85
2021/10/17 02:23:22;;;;;;;0.17;0.17;;;;;;;6.57;100.00;101207.75;5029056;28;20049;-84
2021/10/17 02:25:55;;;;;;;0.20;0.20;;;;;;;6.59;100.00;101200.25;5011797;28;20516;-84
2021/10/17 02:28:47;;;;;;;0.20;0.20;;;;;;;6.66;100.00;101194.69;5020016;28;20537;-84
2021/10/17 02:31:20;;;;;;;0.20;0.20;;;;;;;6.63;100.00;101188.69;5026390;28;20042;-84
2021/10/17 02:33:55;;;;;;;0.30;0.30;;;;;;;6.59;100.00;101184.84;5011188;28;20042;-84
2021/10/17 02:36:30;;;;;;;0.20;0.20;;;;;;;6.68;100.00;101192.56;5010731;28;20058;-84
2021/10/17 02:39:04;;;;;;;0.20;0.20;;;;;;;6.62;100.00;101180.84;5012889;28;20058;-83
2021/10/17 02:41:33;;;;;;;0.20;0.20;;;;;;;6.63;100.00;101175.19;5027442;28;20414;-83
2021/10/17 02:44:02;;;;;;;0.20;0.20;;;;;;;6.69;100.00;101178.81;5012194;28;20398;-83
2021/10/17 02:46:37;;;;;;;0.20;0.20;;;;;;;6.73;100.00;101179.16;5008655;28;20057;-84
2021/10/17 02:49:10;;;;;;;0.20;0.20;;;;;;;6.72;100.00;101180.19;5014027;28;20517;-84
2021/10/17 02:51:44;;;;;;;0.20;0.20;;;;;;;6.84;100.00;101164.75;5008999;28;20394;-83
2021/10/17 02:54:18;;;;;;;0.20;0.20;;;;;;;6.73;100.00;101168.31;5011130;28;20046;-83
2021/10/17 02:56:50;;;;;;;0.20;0.20;;;;;;;6.66;100.00;101164.91;5011824;28;20054;-85
2021/10/17 02:59:25;;;;;;;0.20;0.20;;;;;;;6.81;100.00;101165.22;5029511;28;20050;-83
2021/10/17 03:02:00;;;;;;;0.20;0.20;;;;;;;6.71;100.00;101165.88;5028726;28;20422;-83
2021/10/17 03:04:33;;;;;;;0.15;0.15;;;;;;;6.70;100.00;101163.38;5012789;28;20057;-83
2021/10/17 03:07:08;;;;;;;0.20;0.20;;;;;;;6.79;100.00;101161.94;5030566;28;20054;-84
2021/10/17 03:09:59;;;;;;;0.20;0.20;;;;;;;6.66;100.00;101165.75;5027263;28;20398;-84
2021/10/17 03:12:27;;;;;;;0.20;0.20;;;;;;;6.68;100.00;101160.91;5021986;28;20057;-84
2021/10/17 03:15:03;;;;;;;0.20;0.20;;;;;;;6.67;100.00;101162.00;5026551;28;20060;-84
2021/10/17 03:17:37;;;;;;;0.20;0.20;;;;;;;6.72;100.00;101155.84;5010714;28;20057;-84
2021/10/17 03:20:11;;;;;;;0.20;0.20;;;;;;;6.76;100.00;101157.03;5012638;28;20057;-84
2021/10/17 03:22:48;;;;;;;0.20;0.20;;;;;;;6.67;100.00;101159.31;5024792;28;20517;-84
2021/10/17 03:25:21;;;;;;;0.20;0.20;;;;;;;6.66;100.00;101162.22;5026893;28;20049;-83
2021/10/17 03:27:52;;;;;;;0.20;0.20;;;;;;;6.75;100.00;101155.38;5028010;28;20053;-84
2021/10/17 03:30:29;;;;;;;0.20;0.20;;;;;;;6.77;100.00;101145.13;5027564;28;20053;-82
2021/10/17 03:33:08;;;;;;;0.30;0.30;;;;;;;6.68;100.00;101154.69;5025370;28;20050;-82
2021/10/17 03:35:42;;;;;;;0.20;0.20;;;;;;;6.70;100.00;101157.97;5009684;28;20054;-82
2021/10/17 03:38:17;;;;;;;0.20;0.20;;;;;;;6.75;100.00;101150.78;5011587;28;20061;-84
2021/10/17 03:40:50;;;;;;;0.20;0.20;;;;;;;6.67;100.00;101153.91;5011550;28;20054;-84
2021/10/17 03:43:19;;;;;;;0.20;0.20;;;;;;;6.68;100.00;101155.50;5010692;28;20557;-82
2021/10/17 03:45:56;;;;;;;0.20;0.20;;;;;;;6.70;100.00;101160.69;5010637;28;20050;-83
2021/10/17 03:48:32;;;;;;;0.20;0.20;;;;;;;6.49;100.00;101148.66;5025560;28;20053;-82
2021/10/17 03:51:14;;;;;;;0.20;0.20;;;;;;;6.53;100.00;101164.19;5025580;28;20057;-84
2021/10/17 03:53:49;;;;;;;0.20;0.20;;;;;;;6.49;100.00;101157.59;5023505;28;20426;-83
2021/10/17 03:56:17;;;;;;;0.20;0.20;;;;;;;6.40;100.00;101148.22;5023400;28;20045;-83
2021/10/17 03:58:53;;;;;;;0.20;0.20;;;;;;;6.49;100.00;101160.31;5010073;28;20057;-83
2021/10/17 04:01:26;;;;;;;0.13;0.13;;;;;;;6.46;100.00;101153.50;5024117;28;20462;-83
2021/10/17 04:04:00;;;;;;;0.20;0.20;;;;;;;6.49;100.00;101165.72;5027551;28;20056;-84
2021/10/17 04:06:35;;;;;;;0.25;0.25;;;;;;;6.49;100.00;101162.19;5009495;28;20060;-84
2021/10/17 04:09:20;;;;;;;0.20;0.20;;;;;;;6.56;100.00;101165.56;5024961;28;20046;-83
2021/10/17 04:11:53;;;;;;;0.20;0.20;;;;;;;6.47;100.00;101157.81;5007291;28;20050;-83
2021/10/17 04:14:30;;;;;;;0.20;0.20;;;;;;;6.50;100.00;101159.22;5009498;28;20060;-83
2021/10/17 04:17:05;;;;;;;0.10;0.10;;;;;;;6.49;100.00;101160.31;5010563;28;20050;-83
2021/10/17 04:19:38;;;;;;;0.20;0.20;;;;;;;6.51;100.00;101158.19;5026826;28;20053;-83
2021/10/17 04:22:12;;;;;;;0.20;0.20;;;;;;;6.50;100.00;101156.53;5010108;28;20450;-83
2021/10/17 04:24:47;;;;;;;0.20;0.20;;;;;;;6.56;100.00;101162.84;5009885;28;20054;-82
2021/10/17 04:27:16;;;;;;;0.20;0.20;;;;;;;6.59;100.00;101160.50;5009745;28;20419;-82
2021/10/17 04:29:51;;;;;;;0.20;0.20;;;;;;;6.55;100.00;101158.53;5025842;28;20053;-83
2021/10/17 04:32:24;;;;;;;0.20;0.20;;;;;;;6.49;100.00;101151.38;5022003;28;20046;-82
2021/10/17 04:34:57;;;;;;;0.20;0.20;;;;;;;6.58;100.00;101153.44;5021380;28;20054;-84
2021/10/17 04:37:30;;;;;;;0.22;0.22;;;;;;;6.54;100.00;101162.28;5009982;28;20526;-83
2021/10/17 04:40:03;;;;;;;0.20;0.20;;;;;;;6.54;100.00;101160.38;5010505;28;20045;-83
2021/10/17 04:42:36;;;;;;;;;;;;;;;6.57;100.00;101156.38;5010760;28;20049;-83
2021/10/17 04:45:10;;;;;;;0.20;0.20;;;;;;;6.50;100.00;101163.81;5021714;28;19925;-82
2021/10/17 04:47:39;;;;;;;0.15;0.15;;;;;;;6.51;100.00;101160.88;5009250;28;20049;-83
2021/10/17 04:50:12;;;;;;;0.20;0.20;;;;;;;6.55;100.00;101159.34;5010962;28;20056;-83
2021/10/17 04:52:47;;;;;;;0.22;0.22;;;;;;;6.60;100.00;101161.31;5008016;28;20054;-83
2021/10/17 04:55:21;;;;;;;0.20;0.20;;;;;;;6.64;100.00;101162.47;5009815;28;20061;-83
2021/10/17 04:57:55;;;;;;;0.25;0.25;;;;;;;6.58;100.00;101166.97;5009157;28;20490;-82
2021/10/17 05:00:29;;;;;;;0.20;0.20;;;;;;;6.53;100.00;101161.47;5012633;28;20056;-83
2021/10/17 05:03:00;;;;;;;0.20;0.20;;;;;;;6.43;100.00;101148.53;5024125;28;20050;-82
2021/10/17 05:05:33;;;;;;;0.20;0.20;;;;;;;6.37;100.00;101168.44;5025679;28;20057;-82
2021/10/17 05:08:07;;;;;;;0.20;0.20;;;;;;;6.35;100.00;101161.63;5009845;28;20049;-83
2021/10/17 05:10:43;;;;;;;0.20;0.20;;;;;;;6.32;100.00;101160.22;5009862;28;20057;-83
2021/10/17 05:13:11;;;;;;;0.25;0.25;;;;;;;6.28;100.00;101159.06;5010349;28;20056;-82
2021/10/17 05:15:44;;;;;;;0.30;0.30;;;;;;;6.28;100.00;101169.88;5013605;28;20046;-82
2021/10/17 05:18:18;;;;;;;0.20;0.20;;;;;;;6.23;100.00;101167.09;5008289;28;20050;-83
2021/10/17 05:20:56;;;;;;;0.20;0.20;;;;;;;6.36;100.00;101168.69;5010045;28;20426;-83
2021/10/17 05:23:30;;;;;;;0.30;0.30;;;;;;;6.32;100.00;101175.63;5008928;28;20037;-81
2021/10/17 05:26:01;;;;;;;0.20;0.20;;;;;;;6.33;100.00;101169.19;5021840;28;20052;-82
2021/10/17 05:28:35;;;;;;;0.20;0.20;;;;;;;6.45;100.00;101165.38;5008012;28;20062;-83
2021/10/17 05:31:08;;;;;;;0.20;0.20;;;;;;;6.49;100.00;101168.44;5024802;28;20053;-82
2021/10/17 05:33:39;;;;;;;0.20;0.20;;;;;;;6.45;100.00;101170.78;5004811;28;20050;-83
2021/10/17 05:36:13;;;;;;;0.20;0.20;;;;;;;6.45;100.00;101184.28;5010734;28;20050;-82
2021/10/17 05:38:49;;;;;;;0.15;0.15;;;;;;;6.53;100.00;101183.09;5009692;28;20049;-83
2021/10/17 05:41:25;;;;;;;0.20;0.20;;;;;;;6.55;100.00;101175.56;5022136;28;20053;-82
2021/10/17 05:43:58;;;;;;;0.22;0.22;;;;;;;6.56;100.00;101181.78;5025734;28;20057;-82
2021/10/17 05:46:28;;;;;;;0.20;0.20;;;;;;;6.55;100.00;101185.56;5009700;28;20053;-83
2021/10/17 05:49:01;;;;;;;0.28;0.28;;;;;;;6.63;100.00;101187.88;5022950;28;20057;-82
2021/10/17 05:51:35;;;;;;;0.20;0.20;;;;;;;6.69;100.00;101191.50;5007833;28;20725;-82
2021/10/17 05:54:09;;;;;;;0.20;0.20;;;;;;;6.66;100.00;101194.69;5026758;28;20057;-83
2021/10/17 05:56:44;;;;;;;0.20;0.20;;;;;;;6.71;100.00;101198.31;5009279;28;20390;-83
2021/10/17 05:59:17;;;;;;;0.20;0.20;;;;;;;6.77;100.00;101202.75;5023195;28;20054;-82
2021/10/17 06:01:51;;;;;;;0.20;0.20;;;;;;;6.75;100.00;101214.88;5021470;28;20049;-82
2021/10/17 06:04:31;;;;;;;0.20;0.20;;;;;;;6.85;100.00;101208.84;5009341;28;20060;-83
2021/10/17 06:07:06;;;;;;;0.20;0.20;;;;;;;6.88;100.00;101217.31;5013630;28;20076;-82
2021/10/17 06:09:40;;;;;;;0.10;0.10;;;;;;;6.90;100.00;101215.16;5004870;28;20041;-83
2021/10/17 06:12:12;;;;;;;0.30;0.30;;;;;;;6.79;100.00;101216.03;5005571;28;20054;-82
2021/10/17 06:14:45;;;;;;;0.20;0.20;;;;;;;6.78;100.00;101215.22;5008311;28;20042;-82
2021/10/17 06:17:20;;;;;;;0.20;0.20;;;;;;;6.85;100.00;101216.94;5005650;28;20046;-82
2021/10/17 06:19:54;;;;;;;0.20;0.20;;;;;;;6.89;100.00;101208.13;5008098;28;20057;-84
2021/10/17 06:22:28;;;;;;;0.22;0.22;;;;;;;6.81;100.00;101209.34;5008655;28;20049;-84
2021/10/17 06:25:01;;;;;;;0.20;0.20;;;;;;;6.92;100.00;101214.94;5024894;28;20402;-83
2021/10/17 06:27:37;;;;;;;0.20;0.20;;;;;;;6.96;100.00;101222.31;5005793;28;20061;-82
2021/10/17 06:30:11;;;;;;;0.17;0.17;;;;;;;6.93;100.00;101219.28;5023605;28;20046;-83
2021/10/17 06:32:44;;;;;;;0.20;0.20;;;;;;;7.00;100.00;101229.97;5004859;28;20050;-83
2021/10/17 06:35:23;;;;;;;0.20;0.20;;;;;;;7.01;100.00;101234.31;5006646;28;20050;-82
2021/10/17 06:37:57;;;;;;;0.20;0.20;;;;;;;7.06;100.00;101235.22;5007429;28;20045;-83
2021/10/17 06:40:31;;;;;;;0.20;0.20;;;;;;;7.05;100.00;101235.47;5009793;28;20053;-83
2021/10/17 06:43:08;;;;;;;0.30;0.30;;;;;;;6.98;100.00;101216.66;5007937;28;20050;-83
2021/10/17 06:45:53;;;;;;;0.20;0.20;;;;;;;7.12;100.00;101230.72;5008011;28;20053;-82
2021/10/17 06:48:30;;;;;;;0.20;0.20;;;;;;;7.11;100.00;101229.06;5011385;28;20045;-83
2021/10/17 06:51:03;;;;;;;0.20;0.20;;;;;;;7.08;100.00;101229.56;5024676;28;20049;-83
2021/10/17 06:53:37;;;;;;;0.17;0.17;;;;;;;7.24;100.00;101227.97;5009316;28;20061;-83
2021/10/17 06:56:11;;;;;;;0.20;0.20;;;;;;;7.28;100.00;101221.81;5012821;28;20421;-83
2021/10/17 06:58:46;;;;;;;0.20;0.20;;;;;;;7.32;100.00;101231.09;5011042;28;20061;-84
2021/10/17 07:01:14;;;;;;;0.20;0.20;;;;;;;7.35;100.00;101242.47;5012850;28;20061;-82
2021/10/17 07:03:51;;;;;;;0.20;0.20;;;;;;;7.44;100.00;101239.16;5010585;28;20053;-83
2021/10/17 07:06:29;;;;;;;0.28;0.28;;;;;;;7.50;100.00;101245.47;5012454;28;20046;-84
2021/10/17 07:09:07;;;;;;;0.20;0.20;;;;;;;7.60;100.00;101244.81;5011577;28;20502;-82
2021/10/17 07:11:48;;;;;;;0.10;0.10;;;;;;;7.47;100.00;101232.41;5009403;28;20506;-82
2021/10/17 07:14:27;;;;;;;0.25;0.25;;;;;;;7.51;100.00;101247.09;5022098;28;20065;-83
2021/10/17 07:17:09;;;;;;;0.30;0.30;;;;;;;7.57;100.00;101243.41;5011525;28;20061;-84
2021/10/17 07:19:42;;;;;;;0.20;0.20;;;;;;;7.67;100.00;101234.63;5022974;28;20060;-82
2021/10/17 07:22:16;;;;;;;0.20;0.20;;;;;;;7.69;100.00;101251.44;5011041;28;20049;-83
2021/10/17 07:24:51;;;;;;;0.20;0.20;;;;;;;7.66;100.00;101249.25;5024534;28;20042;-84
2021/10/17 07:27:19;;;;;;;0.22;0.22;;;;;;;7.66;100.00;101241.94;5012479;28;20072;-84
2021/10/17 07:29:54;;;;;;;0.20;0.20;;;;;;;7.76;100.00;101241.28;5011640;28;20053;-84
2021/10/17 07:32:22;;;;;;;0.20;0.20;;;;;;;7.78;100.00;101243.75;5007788;28;20065;-82
2021/10/17 07:34:56;;;;;;;0.20;0.20;;;;;;;7.84;100.00;101250.88;5012991;28;20706;-84
2021/10/17 07:37:36;;;;;;;0.20;0.20;;;;;;;7.86;100.00;101246.03;5027838;28;20049;-86
2021/10/17 07:40:07;;;;;;;0.20;0.20;;;;;;;7.80;100.00;101247.00;5024014;28;20050;-84
2021/10/17 07:42:41;;;;;;;0.30;0.30;;;;;;;7.82;100.00;101250.31;5009082;28;20050;-85
2021/10/17 07:45:21;;;;;;;0.20;0.20;;;;;;;7.82;100.00;101247.59;5024323;28;20045;-84
2021/10/17 07:47:58;;;;;;;0.47;0.30;;;;;;;7.80;100.00;101245.16;5010217;28;20509;-85
2021/10/17 07:50:33;;;;;;;0.20;0.20;;;;;;;7.86;100.00;101250.63;5011865;28;20049;-84
2021/10/17 07:53:06;;;;;;;0.20;0.20;;;;;;;8.04;100.00;101252.25;5010441;28;20064;-86
2021/10/17 07:55:42;;;;;;;0.20;0.20;;;;;;;7.93;100.00;101241.28;5009726;28;20049;-84
2021/10/17 07:58:19;;;;;;;0.30;0.30;;;;;;;7.91;100.00;101251.53;5022778;28;20065;-85
2021/10/17 08:00:57;;;;;;;0.10;0.10;;;;;;;7.93;100.00;101243.97;5009598;28;20057;-85
2021/10/17 08:03:37;;;;;;;0.30;0.30;;;;;;;7.93;100.00;101243.97;5016539;28;20768;-85
2021/10/17 08:06:21;;;;;;;0.20;0.20;;;;;;;7.88;100.00;101249.31;5008313;28;20634;-86
2021/10/17 08:08:54;;;;;;;0.20;0.20;;;;;;;7.91;100.00;101258.84;5025041;28;20049;-86
2021/10/17 08:11:24;;;;;;;0.20;0.20;;;;;;;7.89;100.00;101264.50;5022351;28;20062;-86
2021/10/17 08:14:02;;;;;;;0.28;0.28;;;;;;;7.90;100.00;101265.31;5021144;28;20061;-88
2021/10/17 08:16:46;;;;;;;0.25;0.25;;;;;;;7.90;100.00;101258.03;5007309;28;20049;-87
2021/10/17 08:19:17;;;;;;;0.20;0.20;;;;;;;7.91;100.00;101266.97;5007732;28;20042;-88
2021/10/17 08:21:45;;;;;;;0.20;0.20;;;;;;;7.90;100.00;101265.31;5024076;28;20042;-87
2021/10/17 08:24:13;;;;;;;0.20;0.20;;;;;;;7.98;100.00;101254.91;5004695;28;20068;-87
2021/10/17 08:26:44;;;;;;;0.20;0.20;;;;;;;7.97;100.00;101271.41;5006042;28;20053;-87
2021/10/17 08:29:17;;;;;;;0.20;0.20;;;;;;;7.96;100.00;101259.75;5022409;28;20060;-87
2021/10/17 08:31:53;;;;;;;0.20;0.20;;;;;;;8.03;100.00;101264.19;5006176;28;20205;-88
2021/10/17 08:34:21;;;;;;;0.20;0.20;;;;;;;8.00;100.00;101260.06;5020838;28;20406;-87
2021/10/17 08:36:54;;;;;;;0.22;0.22;;;;;;;8.00;100.00;101260.06;5002326;28;20054;-83
2021/10/17 08:39:48;;;;;;;0.20;0.20;;;;;;;8.05;100.00;101256.59;5007598;28;20069;-85
2021/10/17 08:42:20;;;;;;;0.20;0.20;;;;;;;8.07;100.00;101266.13;5009403;28;20045;-85
2021/10/17 08:44:48;;;;;;;0.20;0.20;;;;;;;8.11;100.00;101272.69;5003541;28;20069;-85
2021/10/17 08:47:26;;;;;;;0.20;0.20;;;;;;;8.06;100.00;101271.81;5010971;28;20529;-84
2021/10/17 08:50:01;;;;;;;0.20;0.20;;;;;;;8.11;100.00;101275.41;5019966;28;20057;-85
2021/10/17 08:52:46;;;;;;;0.20;0.20;;;;;;;8.04;100.00;101280.19;5001539;28;20060;-86
2021/10/17 08:55:20;;;;;;;0.28;0.28;;;;;;;8.07;100.00;101287.00;5006678;28;20278;-84
2021/10/17 08:58:07;;;;;;;0.30;0.30;;;;;;;8.06;100.00;101283.47;5004548;28;20057;-85
2021/10/17 09:00:40;;;;;;;0.22;0.22;;;;;;;8.07;100.00;101281.59;5022528;28;20060;-83
2021/10/17 09:03:32;;;;;;;0.20;0.20;;;;;;;8.07;100.00;101292.44;5005018;28;20054;-83
2021/10/17 09:06:17;;;;;;;0.20;0.20;;;;;;;8.20;100.00;101296.69;5000657;28;20057;-82
2021/10/17 09:09:03;;;;;;;0.20;0.20;;;;;;;8.07;100.00;101281.59;5004208;28;20054;-83
2021/10/17 09:11:41;;;;;;;0.17;0.17;;;;;;;8.10;100.00;101297.34;5017009;28;20054;-86
2021/10/17 09:14:17;;;;;;;0.10;0.10;;;;;;;8.20;100.00;101304.81;5006866;28;20064;-82
2021/10/17 09:16:52;;;;;;;0.30;0.30;;;;;;;8.15;100.00;101297.44;5006392;28;20057;-83
2021/10/17 09:19:27;;;;;;;0.20;0.20;;;;;;;8.23;100.00;101286.16;5003628;28;20060;-83
2021/10/17 09:22:02;;;;;;;0.20;0.20;;;;;;;8.25;100.00;101291.34;5019089;28;20076;-81
2021/10/17 09:24:40;;;;;;;0.20;0.20;;;;;;;8.24;100.00;101292.41;5000941;28;20061;-83
2021/10/17 09:27:16;;;;;;;0.30;0.30;;;;;;;8.24;100.00;101284.28;5001793;28;20048;-82
2021/10/17 09:29:52;;;;;;;0.20;0.20;;;;;;;8.27;100.00;101286.47;5007516;28;20080;-84
2021/10/17 09:32:28;;;;;;;0.20;0.20;;;;;;;8.33;100.00;101286.31;5002689;28;20065;-82
2021/10/17 09:35:00;;;;;;;0.20;0.20;;;;;;;8.38;100.00;101287.44;5020157;28;20053;-82
2021/10/17 09:37:52;;;;;;;0.20;0.20;;;;;;;8.40;100.00;101291.56;5009799;28;20049;-84
2021/10/17 09:40:41;;;;;;;0.20;0.20;;;;;;;8.42;100.00;101294.81;5005614;28;20084;-83
2021/10/17 09:43:33;;;;;;;0.20;0.20;;;;;;;8.34;100.00;101293.38;5002832;28;20050;-83
2021/10/17 09:46:15;;;;;;;;;;;;;;;8.34;100.00;101300.66;5019908;28;20465;-82
2021/10/17 09:48:48;;;;;;;0.20;0.20;;;;;;;8.31;100.00;101287.63;5021972;28;19940;-82
2021/10/17 09:51:26;;;;;;;0.20;0.20;;;;;;;8.21;100.00;101282.06;4999814;28;20061;-82
2021/10/17 09:54:00;;;;;;;0.30;0.30;;;;;;;8.18;100.00;101280.66;5003172;28;20061;-82
2021/10/17 09:56:33;;;;;;;0.20;0.20;;;;;;;8.25;100.00;101292.16;5002162;28;20058;-83
2021/10/17 09:59:08;;;;;;;0.20;0.20;;;;;;;8.40;100.00;101293.47;5003450;28;20046;-83
2021/10/17 10:01:42;;;;;;;0.20;0.20;;;;;;;8.37;100.00;101302.06;5008435;28;20220;-83
2021/10/17 10:04:17;;;;;;;0.20;0.20;;;;;;;8.44;100.00;101306.25;5005031;28;20057;-82
2021/10/17 10:06:53;;;;;;;0.20;0.20;;;;;;;8.33;100.00;101304.47;5000814;28;20720;-82
2021/10/17 10:09:31;;;;;;;0.20;0.20;;;;;;;8.37;100.00;101305.63;4996571;28;20057;-82
2021/10/17 10:12:07;;;;;;;0.20;0.20;;;;;;;8.29;100.00;101301.44;5000627;28;20064;-82
2021/10/17 10:14:41;;;;;;;0.22;0.22;;;;;;;8.31;100.00;101309.31;5005990;28;20045;-83
2021/10/17 10:17:16;;;;;;;0.20;0.20;;;;;;;8.31;100.00;101309.31;5003567;28;20510;-83
2021/10/17 10:19:49;;;;;;;0.20;0.20;;;;;;;8.32;100.00;101308.25;5021720;28;20054;-84
2021/10/17 10:22:24;;;;;;;0.28;0.28;;;;;;;8.21;100.00;101306.47;5020362;28;20108;-83
2021/10/17 10:25:00;;;;;;;0.20;0.20;;;;;;;8.28;100.00;101313.34;5007691;28;20776;-82
2021/10/17 10:27:37;;;;;;;0.20;0.20;;;;;;;8.26;100.00;101320.06;5008550;28;20045;-83
2021/10/17 10:30:24;;;;;;;0.20;0.20;;;;;;;8.27;100.00;101308.16;5010734;28;20057;-83
2021/10/17 10:33:18;;;;;;;0.22;0.22;;;;;;;8.32;100.00;101310.97;5003109;28;20058;-84
2021/10/17 10:36:03;;;;;;;0.20;0.20;;;;;;;8.36;100.00;101309.41;4999556;28;20069;-82
2021/10/17 10:39:07;;;;;;;0.20;0.20;;;;;;;8.35;100.00;101310.47;5016038;28;20065;-82
2021/10/17 10:42:01;;;;;;;0.20;0.20;;;;;;;8.47;100.00;101319.34;5004307;28;20065;-82
2021/10/17 10:44:41;;;;;;;0.20;0.20;;;;;;;8.47;100.00;101315.81;5018536;28;20058;-82
2021/10/17 10:47:25;;;;;;;0.10;0.10;;;;;;;8.47;100.00;101313.91;5002755;28;20063;-83
2021/10/17 10:49:59;;;;;;;0.30;0.30;;;;;;;8.47;100.00;101305.78;5000027;28;20064;-83
2021/10/17 10:52:43;;;;;;;0.20;0.20;;;;;;;8.55;100.00;101306.41;4999871;28;20053;-83
2021/10/17 10:55:44;;;;;;;0.20;0.20;;;;;;;8.64;100.00;101316.56;5001304;28;20096;-84
2021/10/17 10:58:25;;;;;;;0.20;0.20;;;;;;;8.70;100.00;101311.22;5003808;28;20049;-84
2021/10/17 11:00:59;;;;;;;0.30;0.30;;;;;;;8.77;100.00;101328.13;5005001;28;20050;-85
2021/10/17 11:03:44;;;;;;;0.20;0.20;;;;;;;8.76;100.00;101321.09;5007512;28;20045;-85
2021/10/17 11:06:18;;;;;;;0.20;0.20;;;;;;;8.77;100.00;101325.41;5004433;28;20057;-85
2021/10/17 11:09:22;;;;;;;0.20;0.20;;;;;;;8.79;100.00;101324.09;5006668;28;20050;-82
2021/10/17 11:11:52;;;;;;;0.20;0.20;;;;;;;8.81;100.00;101330.13;5005013;28;20062;-84
2021/10/17 11:14:26;;;;;;;0.20;0.20;;;;;;;8.75;100.00;101322.97;5028096;28;20054;-84
2021/10/17 11:17:01;;;;;;;0.20;0.20;;;;;;;8.77;100.00;101328.13;5021567;28;20053;-83
2021/10/17 11:19:35;;;;;;;0.20;0.20;;;;;;;8.68;100.00;101331.28;5007089;28;20053;-85
2021/10/17 11:22:08;;;;;;;0.20;0.20;;;;;;;8.66;100.00;101335.34;5008617;28;20049;-84
2021/10/17 11:24:42;;;;;;;0.20;0.20;;;;;;;8.68;100.00;101335.91;5008750;28;20050;-83
2021/10/17 11:27:17;;;;;;;0.20;0.20;;;;;;;8.46;100.00;101331.25;5003753;28;20058;-85
2021/10/17 11:29:50;;;;;;;0.20;0.20;;;;;;;8.48;100.00;101334.56;5008367;28;20394;-85
2021/10/17 11:32:23;;;;;;;0.20;0.20;;;;;;;8.48;100.00;101331.03;5009324;28;20056;-84
2021/10/17 11:34:58;;;;;;;0.20;0.20;;;;;;;8.54;100.00;101330.03;5009347;28;20062;-85
2021/10/17 11:37:33;;;;;;;0.28;0.28;;;;;;;8.41;100.00;101322.19;5008057;28;20053;-84
2021/10/17 11:40:10;;;;;;;0.20;0.20;;;;;;;8.43;100.00;101326.31;5011794;28;20652;-85
2021/10/17 11:42:46;;;;;;;0.20;0.20;;;;;;;8.41;100.00;101330.34;5011656;28;20057;-85
2021/10/17 11:45:23;;;;;;;0.30;0.30;;;;;;;8.42;100.00;101323.84;5021906;28;20425;-85
2021/10/17 11:47:59;;;;;;;0.20;0.20;;;;;;;8.38;100.00;101330.84;5003751;28;20045;-84
2021/10/17 11:50:30;;;;;;;0.20;0.20;;;;;;;8.29;100.00;101333.97;5011442;28;20057;-82
2021/10/17 11:53:05;;;;;;;0.20;0.20;;;;;;;8.34;100.00;101333.22;5007765;28;20482;-82
2021/10/17 11:55:40;;;;;;;0.30;0.30;;;;;;;8.34;100.00;101330.50;5009240;28;20046;-84
2021/10/17 11:58:18;;;;;;;0.30;0.30;;;;;;;8.38;100.00;101320.00;5010278;28;20143;-83
2021/10/17 12:00:47;;;;;;;0.22;0.22;;;;;;;8.35;100.00;101315.88;5006424;28;20057;-83
2021/10/17 12:03:23;;;;;;;0.30;0.30;;;;;;;8.51;100.00;101312.34;5009671;28;20057;-82